Time;durP1;ratioP1;P1;durP2;ratioP2;P2;SDS_P1;SDS_P2;PMS_P1;PMS_P2;Temp;Humidity;BMP_temperature;BMP_pressure;BME280_temperature;BME280_humidity;BME280_pressure;Samples;Min_cycle;Max_cycle;Signal;HPM_P1;HPM_P2
2023/12/21 00:00:27;;;;;;;8.07;5.40;;;;;;;24.53;33.17;99439.06;4983332;28;20642;-44
2023/12/21 00:02:52;;;;;;;7.80;5.00;;;;;;;24.54;33.15;99450.84;4986953;28;20030;-46
2023/12/21 00:05:18;;;;;;;6.90;5.07;;;;;;;24.54;33.04;99445.34;4981035;28;20683;-43
2023/12/21 00:07:43;;;;;;;7.35;5.20;;;;;;;24.52;33.18;99448.59;4985524;28;20029;-43
2023/12/21 00:10:08;;;;;;;6.45;4.25;;;;;;;24.55;33.15;99446.84;4986928;28;20020;-44
2023/12/21 00:12:34;;;;;;;7.40;4.80;;;;;;;24.53;33.22;99427.28;4983535;28;20371;-44
2023/12/21 00:14:59;;;;;;;7.10;4.90;;;;;;;24.54;33.19;99432.31;4981362;28;20026;-43
2023/12/21 00:17:24;;;;;;;8.27;4.80;;;;;;;24.53;33.19;99441.06;4980382;28;20034;-46
2023/12/21 00:19:50;;;;;;;6.90;4.63;;;;;;;24.52;33.21;99443.06;4982791;28;20454;-45
2023/12/21 00:22:15;;;;;;;6.70;4.45;;;;;;;24.52;33.17;99440.31;4983948;28;20099;-43
2023/12/21 00:24:40;;;;;;;6.70;4.18;;;;;;;24.51;33.15;99427.00;4984538;28;20026;-44
2023/12/21 00:27:06;;;;;;;6.63;4.40;;;;;;;24.48;33.17;99420.47;4982900;28;20028;-46
2023/12/21 00:29:31;;;;;;;7.03;4.25;;;;;;;24.50;33.03;99422.75;4984420;28;20037;-45
2023/12/21 00:31:57;;;;;;;6.05;3.97;;;;;;;24.50;33.04;99428.25;4981692;28;20022;-50
2023/12/21 00:34:22;;;;;;;6.45;3.88;;;;;;;24.51;33.07;99422.25;4981229;28;20432;-46
2023/12/21 00:36:47;;;;;;;6.00;3.70;;;;;;;24.52;33.13;99436.81;4981221;28;20034;-46
2023/12/21 00:39:13;;;;;;;6.18;3.67;;;;;;;24.51;33.08;99452.59;4983574;28;20026;-46
2023/12/21 00:41:38;;;;;;;6.15;3.70;;;;;;;24.50;32.99;99445.56;4980801;28;20040;-44
2023/12/21 00:44:03;;;;;;;5.80;3.53;;;;;;;24.49;32.89;99433.03;4984273;28;20393;-44
2023/12/21 00:46:29;;;;;;;6.53;3.90;;;;;;;24.48;33.03;99420.47;4982595;28;20100;-44
2023/12/21 00:48:54;;;;;;;6.28;3.67;;;;;;;24.49;33.07;99410.94;4985316;28;20029;-42
2023/12/21 00:51:19;;;;;;;5.90;3.50;;;;;;;24.50;33.00;99415.22;4983898;28;20034;-44
2023/12/21 00:53:45;;;;;;;5.88;3.30;;;;;;;24.52;32.90;99398.19;4985059;28;20027;-44
2023/12/21 00:56:10;;;;;;;6.05;3.50;;;;;;;24.51;33.01;99402.94;4985494;28;20037;-44
2023/12/21 00:58:35;;;;;;;5.72;3.28;;;;;;;24.52;32.92;99396.16;4980269;28;20030;-45
2023/12/21 01:01:01;;;;;;;5.75;3.28;;;;;;;24.54;32.94;99401.19;4982886;28;20520;-45
2023/12/21 01:03:26;;;;;;;5.45;3.10;;;;;;;24.53;32.92;99399.69;4977961;28;20030;-44
2023/12/21 01:05:51;;;;;;;5.53;3.10;;;;;;;24.51;32.85;99396.66;4982124;28;20027;-43
2023/12/21 01:08:17;;;;;;;5.35;2.90;;;;;;;24.50;32.91;99397.91;4980378;28;20042;-44
2023/12/21 01:10:42;;;;;;;5.30;2.97;;;;;;;24.50;33.07;99384.13;4983740;28;20023;-48
2023/12/21 01:13:07;;;;;;;5.10;3.05;;;;;;;24.50;32.95;99373.84;4981281;28;20043;-45
2023/12/21 01:15:33;;;;;;;5.28;3.03;;;;;;;24.51;32.87;99367.06;4983032;28;20031;-46
2023/12/21 01:17:58;;;;;;;4.93;2.80;;;;;;;24.52;33.01;99360.31;4983315;28;20030;-43
2023/12/21 01:20:24;;;;;;;5.05;2.90;;;;;;;24.51;33.03;99358.03;4983882;28;20030;-47
2023/12/21 01:22:49;;;;;;;5.65;3.13;;;;;;;24.49;32.91;99346.75;4980672;28;20045;-42
2023/12/21 01:25:14;;;;;;;5.78;2.97;;;;;;;24.49;33.00;99346.75;4983209;28;20026;-43
2023/12/21 01:27:40;;;;;;;5.10;2.90;;;;;;;24.48;32.98;99345.22;4980621;28;20037;-43
2023/12/21 01:30:06;;;;;;;5.22;2.85;;;;;;;24.47;33.11;99325.16;4979233;28;20018;-45
2023/12/21 01:32:31;;;;;;;5.00;2.80;;;;;;;24.49;32.79;99338.47;4979792;28;20030;-41
2023/12/21 01:34:57;;;;;;;4.75;2.58;;;;;;;24.49;32.91;99336.47;4979421;28;20026;-44
2023/12/21 01:37:22;;;;;;;5.10;2.83;;;;;;;24.49;33.03;99321.91;4983650;28;20042;-43
2023/12/21 01:39:47;;;;;;;4.90;2.30;;;;;;;24.49;32.92;99319.16;4985748;28;20041;-44
2023/12/21 01:42:13;;;;;;;4.95;2.70;;;;;;;24.49;33.01;99321.91;4983451;28;20119;-46
2023/12/21 01:44:38;;;;;;;4.93;2.53;;;;;;;24.48;33.05;99328.69;4979980;28;20093;-53
2023/12/21 01:47:03;;;;;;;4.90;2.70;;;;;;;24.48;33.02;99315.63;4983073;28;20474;-45
2023/12/21 01:49:29;;;;;;;4.90;2.40;;;;;;;24.48;32.92;99315.63;4979922;28;20039;-46
2023/12/21 01:51:55;;;;;;;4.68;2.47;;;;;;;24.47;32.98;99324.41;4982684;28;20018;-44
2023/12/21 01:54:20;;;;;;;4.80;2.50;;;;;;;24.48;32.88;99325.91;4977956;28;20437;-43
2023/12/21 01:56:45;;;;;;;4.25;2.30;;;;;;;24.48;32.96;99321.16;4988960;28;20034;-44
2023/12/21 01:59:11;;;;;;;4.95;2.40;;;;;;;24.47;32.95;99314.13;4981965;28;20083;-46
2023/12/21 02:01:38;;;;;;;4.63;2.40;;;;;;;24.46;33.07;99306.34;4983394;28;20395;-41
2023/12/21 02:04:03;;;;;;;4.65;2.20;;;;;;;24.47;32.77;99310.63;4982285;28;20078;-43
2023/12/21 02:06:28;;;;;;;4.50;2.42;;;;;;;24.45;32.98;99319.38;5015816;28;20057;-42
2023/12/21 02:08:54;;;;;;;4.65;2.22;;;;;;;24.44;32.84;99319.88;4983884;28;20042;-42
2023/12/21 02:11:19;;;;;;;4.25;2.10;;;;;;;24.43;33.01;99304.59;5015225;28;20022;-45
2023/12/21 02:13:44;;;;;;;4.63;2.30;;;;;;;24.43;33.00;99304.59;4979979;28;20026;-45
2023/12/21 02:16:12;;;;;;;4.30;2.15;;;;;;;24.43;32.93;99288.78;4981158;28;20081;-45
2023/12/21 02:18:37;;;;;;;4.63;2.53;;;;;;;24.42;32.92;99279.00;4995865;28;20386;-42
2023/12/21 02:21:03;;;;;;;4.60;2.40;;;;;;;24.43;32.97;99279.75;4983737;28;20030;-49
2023/12/21 02:23:29;;;;;;;4.43;2.17;;;;;;;24.43;32.91;99274.25;4980138;28;20446;-45
2023/12/21 02:25:54;;;;;;;4.38;2.13;;;;;;;24.44;33.06;99273.00;4985134;28;20034;-43
2023/12/21 02:28:20;;;;;;;4.20;2.00;;;;;;;24.42;32.99;99269.97;5012430;28;20022;-43
2023/12/21 02:30:47;;;;;;;4.07;2.00;;;;;;;24.43;32.94;99263.97;4979244;28;20035;-43
2023/12/21 02:33:15;;;;;;;4.25;1.90;;;;;;;24.43;33.01;99271.47;4985262;28;20027;-45
2023/12/21 02:35:41;;;;;;;4.28;1.80;;;;;;;24.42;33.00;99261.69;4982511;28;20051;-43
2023/12/21 02:38:06;;;;;;;4.28;2.03;;;;;;;24.43;32.84;99263.19;4981912;28;20555;-42
2023/12/21 02:40:31;;;;;;;4.40;2.03;;;;;;;24.43;32.84;99246.66;4981340;28;20026;-44
2023/12/21 02:42:57;;;;;;;3.65;1.67;;;;;;;24.43;32.81;99241.13;4980320;28;20545;-41
2023/12/21 02:45:22;;;;;;;3.90;1.85;;;;;;;24.43;32.80;99230.09;4981865;28;20053;-41
2023/12/21 02:47:48;;;;;;;4.03;1.75;;;;;;;24.44;32.83;99231.59;4982973;28;20038;-44
2023/12/21 02:50:13;;;;;;;3.45;1.60;;;;;;;24.42;32.82;99212.03;4983012;28;20762;-41
2023/12/21 02:52:38;;;;;;;3.78;1.73;;;;;;;24.42;32.91;99196.25;4979548;28;20076;-42
2023/12/21 02:55:04;;;;;;;3.47;1.50;;;;;;;24.43;32.80;99203.25;4985811;28;20022;-42
2023/12/21 02:57:29;;;;;;;3.95;1.80;;;;;;;24.43;32.80;99195.00;4983101;28;20109;-43
2023/12/21 02:59:55;;;;;;;4.35;1.80;;;;;;;24.43;32.90;99191.47;4982834;28;20482;-43
2023/12/21 03:02:20;;;;;;;4.25;1.80;;;;;;;24.40;32.93;99182.19;4983683;28;20081;-41
2023/12/21 03:04:45;;;;;;;3.70;1.75;;;;;;;24.42;32.94;99168.66;4982973;28;20031;-42
2023/12/21 03:07:11;;;;;;;3.88;1.70;;;;;;;24.41;33.00;99156.13;4983019;28;20034;-42
2023/12/21 03:09:36;;;;;;;3.90;1.75;;;;;;;24.43;32.85;99152.84;4990127;28;20052;-41
2023/12/21 03:12:01;;;;;;;4.05;1.70;;;;;;;24.41;32.97;99156.13;4984923;28;20053;-41
2023/12/21 03:14:27;;;;;;;3.80;1.52;;;;;;;24.41;32.84;99160.88;4985998;28;20359;-46
2023/12/21 03:16:52;;;;;;;4.03;1.98;;;;;;;24.41;32.99;99169.16;4983130;28;20031;-42
2023/12/21 03:19:17;;;;;;;3.85;1.70;;;;;;;24.42;32.94;99176.94;4984594;28;20034;-42
2023/12/21 03:21:43;;;;;;;3.38;1.70;;;;;;;24.42;32.66;99174.16;4983266;28;20393;-41
2023/12/21 03:24:09;;;;;;;3.55;1.60;;;;;;;24.42;32.87;99163.13;4983604;28;20030;-41
2023/12/21 03:26:34;;;;;;;3.78;1.60;;;;;;;24.41;32.79;99171.91;4984457;28;20080;-42
2023/12/21 03:28:59;;;;;;;3.35;1.60;;;;;;;24.40;32.92;99154.59;4984541;28;20026;-43
2023/12/21 03:31:25;;;;;;;3.17;1.50;;;;;;;24.42;32.73;99140.31;4985724;28;20037;-42
2023/12/21 03:33:50;;;;;;;3.60;1.55;;;;;;;24.43;32.80;99136.31;4983472;28;20089;-44
2023/12/21 03:36:17;;;;;;;3.08;1.50;;;;;;;24.43;32.83;99126.03;4987471;28;20018;-48
2023/12/21 03:38:42;;;;;;;2.90;1.33;;;;;;;24.44;32.74;99127.53;4981743;28;20019;-46
2023/12/21 03:41:07;;;;;;;3.30;1.40;;;;;;;24.46;32.69;99118.75;4982550;28;20530;-44
2023/12/21 03:43:33;;;;;;;3.30;1.48;;;;;;;24.47;32.73;99126.53;4977054;28;20022;-51
2023/12/21 03:45:58;;;;;;;3.75;1.60;;;;;;;24.47;32.73;99112.00;4982008;28;20389;-45
2023/12/21 03:48:24;;;;;;;2.53;1.30;;;;;;;24.47;32.63;99137.56;4981018;28;20027;-44
2023/12/21 03:50:49;;;;;;;2.70;1.40;;;;;;;24.45;32.67;99140.06;4980326;28;20018;-41
2023/12/21 03:53:16;;;;;;;3.13;1.50;;;;;;;24.46;32.66;99140.81;4980310;28;20379;-41
2023/12/21 03:55:42;;;;;;;3.28;1.50;;;;;;;24.45;32.74;99131.03;4987385;28;20030;-42
2023/12/21 03:58:07;;;;;;;3.00;1.33;;;;;;;24.40;32.88;99116.00;4983589;28;20034;-46
2023/12/21 04:00:32;;;;;;;2.92;1.30;;;;;;;24.36;32.75;99105.22;4983375;28;20385;-44
2023/12/21 04:02:58;;;;;;;2.75;1.27;;;;;;;24.35;32.94;99102.97;4982649;28;20043;-41
2023/12/21 04:05:23;;;;;;;3.22;1.40;;;;;;;24.32;32.92;99095.69;4984240;28;20025;-42
2023/12/21 04:07:48;;;;;;;3.35;1.30;;;;;;;24.32;32.84;99098.47;4985366;28;20035;-46
2023/12/21 04:10:14;;;;;;;2.65;1.27;;;;;;;24.29;32.63;99102.97;4981205;28;20163;-41
2023/12/21 04:12:39;;;;;;;2.40;1.15;;;;;;;24.28;32.91;99093.19;4980893;28;20038;-41
2023/12/21 04:15:05;;;;;;;3.08;1.23;;;;;;;24.29;32.95;99094.69;4980858;28;20089;-45
2023/12/21 04:17:30;;;;;;;2.63;1.20;;;;;;;24.30;33.02;99096.19;4981476;28;20542;-47
2023/12/21 04:19:56;;;;;;;3.17;1.30;;;;;;;24.33;32.89;99084.16;4984246;28;20027;-41
2023/12/21 04:22:21;;;;;;;2.53;1.30;;;;;;;24.33;32.83;99084.16;4982240;28;20093;-45
2023/12/21 04:24:46;;;;;;;3.20;1.30;;;;;;;24.35;32.84;99094.69;4982342;28;20037;-45
2023/12/21 04:27:12;;;;;;;3.58;1.33;;;;;;;24.36;32.88;99069.38;4983644;28;20037;-42
2023/12/21 04:29:38;;;;;;;3.70;1.25;;;;;;;24.37;32.90;99061.84;4977002;28;20011;-45
2023/12/21 04:32:03;;;;;;;2.70;1.20;;;;;;;24.39;32.92;99057.31;4985297;28;20046;-41
2023/12/21 04:34:29;;;;;;;3.53;1.40;;;;;;;24.37;32.96;99046.06;4982628;28;20030;-41
2023/12/21 04:36:54;;;;;;;4.60;1.42;;;;;;;24.38;32.96;99044.78;4977622;28;20102;-41
2023/12/21 04:39:20;;;;;;;2.72;1.30;;;;;;;24.41;33.05;99050.53;4978815;28;20019;-43
2023/12/21 04:41:45;;;;;;;3.10;1.35;;;;;;;24.41;33.04;99056.06;4990994;28;20092;-42
2023/12/21 04:44:10;;;;;;;2.45;1.17;;;;;;;24.44;32.92;99038.50;4979047;28;20022;-42
2023/12/21 04:46:36;;;;;;;4.65;1.30;;;;;;;24.42;33.04;99029.97;4983991;28;20462;-43
2023/12/21 04:49:01;;;;;;;3.22;1.52;;;;;;;24.42;32.92;99027.22;4981131;28;20033;-45
2023/12/21 04:51:27;;;;;;;2.45;1.10;;;;;;;24.41;33.06;99026.47;4981593;28;20030;-41
2023/12/21 04:53:52;;;;;;;3.92;1.30;;;;;;;24.42;33.01;99027.97;4984322;28;20022;-41
2023/12/21 04:56:18;;;;;;;3.72;1.23;;;;;;;24.43;33.04;99034.25;4980992;28;20029;-41
2023/12/21 04:58:43;;;;;;;2.80;1.25;;;;;;;24.44;33.06;99038.50;5011488;28;20030;-42
2023/12/21 05:01:08;;;;;;;2.25;1.20;;;;;;;24.42;33.11;99041.75;4979898;28;20481;-47
2023/12/21 05:03:34;;;;;;;3.33;1.38;;;;;;;24.46;33.15;99041.50;4976251;28;20042;-41
2023/12/21 05:05:59;;;;;;;3.75;1.20;;;;;;;24.47;33.23;99038.25;4978969;28;20415;-41
2023/12/21 05:08:25;;;;;;;4.32;1.55;;;;;;;24.50;33.20;99037.25;4985927;28;20026;-46
2023/12/21 05:10:51;;;;;;;2.88;1.10;;;;;;;24.46;33.18;99044.28;4979222;28;20547;-46
2023/12/21 05:13:16;;;;;;;2.72;1.17;;;;;;;24.45;33.27;99031.72;4983694;28;20036;-45
2023/12/21 05:15:41;;;;;;;2.95;1.10;;;;;;;24.47;33.20;99015.44;4980479;28;20022;-46
2023/12/21 05:18:07;;;;;;;2.88;1.30;;;;;;;24.47;33.25;99001.63;4983149;28;20439;-46
2023/12/21 05:20:32;;;;;;;3.00;1.35;;;;;;;24.48;33.14;99003.13;4978425;28;21042;-46
2023/12/21 05:22:58;;;;;;;2.65;1.20;;;;;;;24.48;33.35;99011.41;4979508;28;20028;-51
2023/12/21 05:25:24;;;;;;;2.75;1.20;;;;;;;24.47;33.31;99020.94;4981640;28;20034;-45
2023/12/21 05:27:49;;;;;;;3.38;1.30;;;;;;;24.47;33.33;99007.16;4979890;28;20038;-46
2023/12/21 05:30:19;;;;;;;3.10;1.10;;;;;;;24.62;33.03;99026.94;4982458;28;20036;-44
2023/12/21 05:32:45;;;;;;;2.90;1.13;;;;;;;24.56;33.20;99021.44;4982169;28;20022;-44
2023/12/21 05:35:10;;;;;;;4.35;1.30;;;;;;;24.52;33.35;99017.44;4979586;28;20493;-46
2023/12/21 05:37:36;;;;;;;3.55;1.50;;;;;;;24.55;33.25;99017.19;4980290;28;20018;-45
2023/12/21 05:40:01;;;;;;;4.63;1.30;;;;;;;24.55;33.27;99002.63;4980396;28;20035;-45
2023/12/21 05:42:26;;;;;;;2.97;1.23;;;;;;;24.56;33.33;99017.94;4979197;28;20037;-45
2023/12/21 05:44:53;;;;;;;4.73;1.50;;;;;;;24.54;33.37;99009.41;4984503;28;20081;-43
2023/12/21 05:47:19;;;;;;;4.28;1.50;;;;;;;24.55;33.55;99000.63;4977988;28;20317;-43
2023/12/21 05:49:44;;;;;;;4.47;1.40;;;;;;;24.56;33.21;98990.34;4978332;28;20084;-41
2023/12/21 05:52:12;;;;;;;4.38;1.40;;;;;;;24.64;33.58;98983.78;4978502;28;20034;-42
2023/12/21 05:54:37;;;;;;;4.03;1.42;;;;;;;24.66;33.71;98972.97;4978207;28;20029;-39
2023/12/21 05:57:03;;;;;;;5.75;1.30;;;;;;;24.68;33.86;98998.06;4979142;28;20042;-39
2023/12/21 05:59:28;;;;;;;3.75;1.38;;;;;;;24.70;34.04;98994.81;4978801;28;20332;-39
2023/12/21 06:01:53;;;;;;;3.17;1.20;;;;;;;24.69;34.09;98983.00;4976338;28;20039;-38
2023/12/21 06:04:19;;;;;;;3.60;1.45;;;;;;;24.77;34.01;98997.03;4980868;28;20029;-40
2023/12/21 06:06:45;;;;;;;3.17;1.30;;;;;;;24.81;33.79;98994.75;4976408;28;20437;-43
2023/12/21 06:09:11;;;;;;;2.85;1.27;;;;;;;24.86;33.95;98960.84;4982195;28;20046;-44
2023/12/21 06:11:36;;;;;;;4.15;1.30;;;;;;;24.91;33.85;98971.13;4980705;28;20058;-45
2023/12/21 06:14:02;;;;;;;7.03;1.30;;;;;;;24.93;33.90;98959.59;4975193;28;20125;-43
2023/12/21 06:16:27;;;;;;;4.32;1.20;;;;;;;24.89;33.90;98939.78;4979481;28;20466;-42
2023/12/21 06:18:53;;;;;;;4.13;1.20;;;;;;;24.90;33.75;98946.78;4977720;28;20118;-41
2023/12/21 06:21:18;;;;;;;3.65;1.17;;;;;;;24.88;33.86;98947.31;4982427;28;20470;-41
2023/12/21 06:23:43;;;;;;;3.00;1.13;;;;;;;24.87;33.85;98948.56;4981310;28;20030;-42
2023/12/21 06:26:09;;;;;;;5.38;1.20;;;;;;;24.89;33.89;98945.28;4978332;28;20557;-42
2023/12/21 06:28:34;;;;;;;3.30;1.13;;;;;;;24.88;33.93;98939.03;4980635;28;20027;-41
2023/12/21 06:31:00;;;;;;;5.18;1.25;;;;;;;24.90;33.80;98946.78;4985801;28;20030;-43
2023/12/21 06:33:26;;;;;;;2.88;1.00;;;;;;;24.88;33.87;98939.03;4983874;28;20030;-47
2023/12/21 06:35:52;;;;;;;3.97;1.73;;;;;;;24.94;33.52;98930.72;4980785;28;20077;-46
2023/12/21 06:38:17;;;;;;;3.30;1.17;;;;;;;24.90;33.77;98919.94;4981421;28;20038;-43
2023/12/21 06:40:43;;;;;;;3.08;1.00;;;;;;;24.90;33.58;98925.47;4987025;28;20030;-44
2023/12/21 06:43:08;;;;;;;3.22;1.13;;;;;;;24.87;33.68;98920.22;4984499;28;20041;-42
2023/12/21 06:45:33;;;;;;;5.35;1.10;;;;;;;24.89;33.69;98928.72;4984720;28;20018;-43
2023/12/21 06:48:02;;;;;;;2.17;0.88;;;;;;;24.89;33.46;98932.25;4984043;28;20465;-45
2023/12/21 06:50:27;;;;;;;4.32;1.10;;;;;;;24.89;33.52;98918.44;4979688;28;20030;-45
2023/12/21 06:52:53;;;;;;;1.35;0.88;;;;;;;24.92;33.47;98922.19;4984100;28;20029;-42
2023/12/21 06:55:18;;;;;;;1.77;0.80;;;;;;;24.93;33.57;98935.50;4981922;28;20036;-46
2023/12/21 06:57:43;;;;;;;2.35;1.00;;;;;;;24.92;33.56;98922.94;4984476;28;20030;-42
2023/12/21 07:00:09;;;;;;;3.55;1.10;;;;;;;24.91;33.51;98913.16;4978507;28;20223;-40
2023/12/21 07:02:35;;;;;;;2.03;0.98;;;;;;;24.91;33.69;98924.19;4988557;28;20022;-39
2023/12/21 07:05:00;;;;;;;2.38;0.93;;;;;;;24.91;33.73;98915.16;4982075;28;20057;-41
2023/12/21 07:07:26;;;;;;;2.40;1.15;;;;;;;24.90;33.70;98928.22;4990604;28;20026;-42
2023/12/21 07:09:51;;;;;;;1.95;0.90;;;;;;;24.88;33.73;98922.47;4988093;28;20030;-40
2023/12/21 07:12:17;;;;;;;2.50;1.10;;;;;;;24.87;33.70;98920.22;4987033;28;20034;-39
2023/12/21 07:14:42;;;;;;;2.13;0.98;;;;;;;24.87;33.52;98920.97;4981232;28;20022;-42
2023/12/21 07:17:07;;;;;;;2.13;1.00;;;;;;;24.87;33.62;98912.69;4983604;28;20026;-40
2023/12/21 07:19:33;;;;;;;2.30;0.82;;;;;;;24.88;33.76;98916.19;4985044;28;20022;-43
2023/12/21 07:21:58;;;;;;;1.42;0.80;;;;;;;24.92;33.44;98898.09;4977618;28;20033;-46
2023/12/21 07:24:24;;;;;;;1.95;0.93;;;;;;;24.92;33.69;98884.28;4981720;28;20075;-41
2023/12/21 07:26:49;;;;;;;1.83;1.00;;;;;;;24.90;33.54;98869.50;4987507;28;20026;-40
2023/12/21 07:29:14;;;;;;;1.35;0.88;;;;;;;24.89;33.49;98860.47;4980445;28;20034;-43
2023/12/21 07:31:40;;;;;;;3.28;1.02;;;;;;;24.88;33.38;98867.25;4981658;28;20048;-39
2023/12/21 07:34:06;;;;;;;2.97;1.00;;;;;;;24.84;33.45;98863.25;4986251;28;20083;-42
2023/12/21 07:36:31;;;;;;;1.67;0.90;;;;;;;24.86;33.34;98847.69;4982160;28;20492;-43
2023/12/21 07:38:57;;;;;;;2.72;1.25;;;;;;;24.91;33.19;98838.63;4986684;28;20036;-45
2023/12/21 07:41:22;;;;;;;3.55;1.10;;;;;;;24.92;33.15;98847.66;4984207;28;20042;-42
2023/12/21 07:43:47;;;;;;;4.75;1.20;;;;;;;24.88;33.20;98841.66;4983201;28;20018;-44
2023/12/21 07:46:16;;;;;;;2.95;1.20;;;;;;;24.85;33.08;98848.94;4983732;28;20437;-42
2023/12/21 07:48:41;;;;;;;7.03;1.10;;;;;;;24.87;33.15;98848.44;4982695;28;20509;-48
2023/12/21 07:51:08;;;;;;;2.17;1.00;;;;;;;24.83;33.21;98868.03;4980904;28;20034;-44
2023/12/21 07:53:34;;;;;;;3.30;1.00;;;;;;;24.83;32.93;98859.75;4984357;28;20019;-42
2023/12/21 07:55:59;;;;;;;2.75;1.00;;;;;;;24.78;33.14;98840.47;4984788;28;20029;-37
2023/12/21 07:58:25;;;;;;;6.10;1.52;;;;;;;24.77;33.43;98855.53;4984141;28;20034;-41
2023/12/21 08:00:50;;;;;;;4.68;1.10;;;;;;;24.80;33.34;98849.72;4980796;28;20080;-41
2023/12/21 08:03:15;;;;;;;3.25;1.00;;;;;;;24.75;33.36;98852.53;4982266;28;20033;-39
2023/12/21 08:05:41;;;;;;;3.88;1.20;;;;;;;24.77;33.27;98861.81;5014894;28;20026;-42
2023/12/21 08:08:06;;;;;;;4.53;1.13;;;;;;;24.84;33.53;98854.97;4977414;28;20591;-42
2023/12/21 08:10:32;;;;;;;3.17;0.93;;;;;;;24.90;32.88;98864.72;4976891;28;20025;-42
2023/12/21 08:12:58;;;;;;;4.35;1.15;;;;;;;24.91;33.16;98855.19;4983148;28;20470;-42
2023/12/21 08:15:26;;;;;;;2.78;1.00;;;;;;;24.96;32.97;98856.44;4979175;28;20027;-40
2023/12/21 08:17:55;;;;;;;6.30;1.27;;;;;;;25.00;32.94;98857.66;4980117;28;20027;-42
2023/12/21 08:20:22;;;;;;;7.90;1.08;;;;;;;25.03;32.99;98847.59;4981440;28;20065;-39
2023/12/21 08:22:47;;;;;;;4.18;1.08;;;;;;;24.96;33.05;98850.94;4982408;28;20026;-45
2023/12/21 08:25:12;;;;;;;3.63;1.02;;;;;;;24.97;33.12;98864.22;4981938;28;20390;-40
2023/12/21 08:27:41;;;;;;;1.90;0.93;;;;;;;24.94;32.86;98856.97;4984302;28;20022;-39
2023/12/21 08:30:07;;;;;;;3.47;1.10;;;;;;;24.95;32.99;98877.03;4980726;28;20022;-42
2023/12/21 08:32:32;;;;;;;4.97;1.00;;;;;;;25.04;33.11;98869.19;4979549;28;20113;-41
2023/12/21 08:34:57;;;;;;;8.93;1.13;;;;;;;25.02;32.92;98871.69;4981265;28;20096;-39
2023/12/21 08:37:23;;;;;;;5.68;1.30;;;;;;;25.02;33.20;98860.66;4980525;28;20039;-42
2023/12/21 08:39:48;;;;;;;4.63;1.00;;;;;;;25.11;33.17;98867.88;4984863;28;20043;-41
2023/12/21 08:42:14;;;;;;;3.45;1.10;;;;;;;25.11;33.23;98850.56;4980338;28;20052;-42
2023/12/21 08:44:39;;;;;;;5.97;1.10;;;;;;;25.09;33.16;98842.03;4987074;28;20022;-43
2023/12/21 08:47:05;;;;;;;25.02;3.55;;;;;;;25.09;33.33;98861.38;4980076;28;20029;-42
2023/12/21 08:49:30;;;;;;;12.75;2.60;;;;;;;25.03;33.59;98851.09;4984547;28;20030;-41
2023/12/21 08:51:55;;;;;;;15.70;2.40;;;;;;;24.97;33.79;98857.94;4980239;28;20026;-45
2023/12/21 08:54:21;;;;;;;9.05;1.98;;;;;;;24.98;33.65;98854.66;4978159;28;21187;-43
2023/12/21 08:56:46;;;;;;;7.05;1.75;;;;;;;25.02;33.77;98843.34;4981414;28;20037;-42
2023/12/21 08:59:12;;;;;;;10.88;1.85;;;;;;;24.96;34.11;98837.88;4981114;28;20026;-45
2023/12/21 09:01:38;;;;;;;5.47;1.50;;;;;;;24.84;33.94;98832.91;4979147;28;20026;-42
2023/12/21 09:04:04;;;;;;;7.32;1.60;;;;;;;24.84;34.04;98832.91;4980105;28;20029;-44
2023/12/21 09:06:31;;;;;;;8.23;1.70;;;;;;;24.85;34.11;98824.09;4980492;28;20026;-41
2023/12/21 09:08:56;;;;;;;7.47;1.80;;;;;;;24.77;34.23;98806.63;4982007;28;20023;-42
2023/12/21 09:11:22;;;;;;;5.18;1.25;;;;;;;24.76;34.26;98799.59;4979587;28;20172;-44
2023/12/21 09:13:47;;;;;;;3.80;1.38;;;;;;;24.73;34.35;98784.06;4991309;28;20111;-42
2023/12/21 09:16:14;;;;;;;6.95;1.30;;;;;;;24.75;34.05;98784.28;4979461;28;20026;-43
2023/12/21 09:18:42;;;;;;;5.47;1.30;;;;;;;24.73;34.05;98784.81;4984622;28;20101;-42
2023/12/21 09:21:07;;;;;;;;;;;;;;;24.74;33.85;98791.06;4982590;28;20039;-42
2023/12/21 09:23:33;;;;;;;4.15;1.20;;;;;;;24.79;33.75;98793.03;4984805;28;20029;-43
2023/12/21 09:25:58;;;;;;;5.13;1.30;;;;;;;24.79;33.92;98800.56;4980227;28;20026;-43
2023/12/21 09:28:23;;;;;;;4.68;1.20;;;;;;;24.82;34.07;98780.97;4983210;28;20026;-42
2023/12/21 09:30:49;;;;;;;5.43;1.40;;;;;;;24.83;33.92;98790.75;4981565;28;20088;-45
2023/12/21 09:33:14;;;;;;;5.38;1.20;;;;;;;24.78;34.37;98788.03;4982025;28;20026;-39
2023/12/21 09:35:39;;;;;;;10.70;1.40;;;;;;;24.81;34.31;98784.22;4979362;28;20022;-39
2023/12/21 09:38:05;;;;;;;5.28;1.20;;;;;;;24.90;34.20;98768.13;4980545;28;20034;-38
2023/12/21 09:40:31;;;;;;;4.22;1.20;;;;;;;24.86;34.51;98781.44;4980391;28;20033;-42
2023/12/21 09:42:57;;;;;;;6.72;1.30;;;;;;;24.87;34.41;98777.41;4981890;28;20165;-44
2023/12/21 09:45:23;;;;;;;4.53;1.25;;;;;;;24.88;34.29;98762.34;4992838;28;20022;-42
2023/12/21 09:47:48;;;;;;;4.18;1.20;;;;;;;24.93;34.23;98774.63;4985145;28;20022;-42
2023/12/21 09:50:14;;;;;;;4.47;1.20;;;;;;;24.93;34.12;98780.16;4994261;28;20035;-41
2023/12/21 09:52:39;;;;;;;2.78;1.17;;;;;;;24.93;34.11;98778.13;5001751;28;20029;-43
2023/12/21 09:55:06;;;;;;;3.42;1.10;;;;;;;24.83;33.88;98771.44;4995424;28;20030;-41
2023/12/21 09:57:34;;;;;;;4.82;1.20;;;;;;;24.69;34.04;98767.03;4984292;28;20551;-43
2023/12/21 10:00:00;;;;;;;3.80;1.20;;;;;;;24.69;34.02;98767.78;4983482;28;20034;-45
2023/12/21 10:02:30;;;;;;;2.65;1.02;;;;;;;24.75;33.92;98747.66;5011408;28;20401;-42
2023/12/21 10:04:55;;;;;;;2.75;0.90;;;;;;;24.79;33.75;98748.13;4980638;28;20098;-45
2023/12/21 10:07:22;;;;;;;1.83;0.93;;;;;;;24.79;33.93;98743.34;4982807;28;20026;-43
2023/12/21 10:09:48;;;;;;;2.67;1.00;;;;;;;24.81;33.97;98754.63;4982667;28;20035;-44
2023/12/21 10:12:13;;;;;;;2.63;0.93;;;;;;;24.83;33.97;98765.91;4983368;28;20062;-44
2023/12/21 10:14:38;;;;;;;2.03;0.90;;;;;;;24.82;34.11;98752.63;4984906;28;20034;-42
2023/12/21 10:17:09;;;;;;;3.55;1.10;;;;;;;24.81;34.00;98740.81;4982904;28;20036;-45
2023/12/21 10:19:35;;;;;;;5.18;1.10;;;;;;;24.83;33.96;98732.78;4986072;28;20465;-44
2023/12/21 10:22:00;;;;;;;1.90;0.90;;;;;;;24.83;34.08;98710.69;4981774;28;20030;-45
2023/12/21 10:24:25;;;;;;;2.45;1.00;;;;;;;24.83;34.14;98687.88;4991434;28;20049;-46
2023/12/21 10:26:52;;;;;;;2.60;0.90;;;;;;;24.84;34.24;98684.59;4983145;28;20017;-43
2023/12/21 10:29:17;;;;;;;1.80;0.80;;;;;;;24.84;34.32;98662.53;4980581;28;20026;-43
2023/12/21 10:31:46;;;;;;;3.13;1.10;;;;;;;24.84;34.09;98657.00;4981759;28;20029;-44
2023/12/21 10:34:12;;;;;;;1.83;0.85;;;;;;;24.87;34.14;98655.97;4985210;28;20029;-42
2023/12/21 10:36:38;;;;;;;2.58;0.88;;;;;;;24.89;34.29;98666.50;4980741;28;20072;-47
2023/12/21 10:39:04;;;;;;;2.08;0.88;;;;;;;24.89;34.29;98658.22;4989543;28;20033;-42
2023/12/21 10:41:29;;;;;;;2.47;0.90;;;;;;;24.90;34.23;98657.72;4983440;28;20050;-42
2023/12/21 10:43:55;;;;;;;2.33;0.82;;;;;;;24.90;34.37;98654.94;4988988;28;20490;-43
2023/12/21 10:46:20;;;;;;;2.72;1.00;;;;;;;24.91;34.30;98633.59;4981352;28;20100;-45
2023/12/21 10:48:45;;;;;;;1.50;0.70;;;;;;;24.89;34.40;98625.84;4981436;28;20029;-42
2023/12/21 10:51:11;;;;;;;3.75;1.00;;;;;;;24.89;34.49;98611.28;5015009;28;20523;-45
2023/12/21 10:53:36;;;;;;;2.17;0.90;;;;;;;24.88;34.66;98588.47;4983160;28;20233;-42
2023/12/21 10:56:02;;;;;;;1.77;0.80;;;;;;;24.88;34.52;98584.97;4997497;28;20717;-44
2023/12/21 10:58:27;;;;;;;1.60;0.70;;;;;;;24.86;34.45;98574.44;5012140;28;20034;-46
2023/12/21 11:00:54;;;;;;;1.77;0.77;;;;;;;24.84;34.60;98585.25;4983671;28;20500;-45
2023/12/21 11:03:19;;;;;;;1.57;0.87;;;;;;;24.88;34.38;98579.44;5010602;28;20065;-45
2023/12/21 11:05:45;;;;;;;2.08;0.82;;;;;;;24.82;34.81;98570.47;5016254;28;20703;-41
2023/12/21 11:08:10;;;;;;;4.97;1.20;;;;;;;24.89;34.90;98587.19;4982193;28;20018;-43
2023/12/21 11:10:36;;;;;;;3.17;1.08;;;;;;;24.87;35.27;98595.25;4985203;28;20030;-42
2023/12/21 11:13:01;;;;;;;3.72;0.90;;;;;;;24.86;35.20;98582.72;4981927;28;20384;-43
2023/12/21 11:15:27;;;;;;;2.50;0.80;;;;;;;24.88;34.86;98580.19;4982315;28;20034;-41
2023/12/21 11:17:56;;;;;;;10.27;0.80;;;;;;;24.87;35.11;98580.69;5001877;28;20481;-45
2023/12/21 11:20:30;;;;;;;2.53;0.85;;;;;;;24.89;34.89;98586.47;5019327;28;20077;-45
2023/12/21 11:22:56;;;;;;;1.38;0.80;;;;;;;24.91;34.94;98595.72;5003897;28;20026;-42
2023/12/21 11:25:22;;;;;;;1.55;0.70;;;;;;;24.92;34.93;98599.97;5015692;28;20026;-41